createdAt,value
2018-08-06T00:01:02.133Z,6.9
2018-08-06T00:06:06.115Z,7.0
2018-08-06T00:11:06.116Z,7.6
2018-08-06T00:16:01.157Z,7.8
2018-08-06T00:21:01.176Z,8.2
2018-08-06T00:27:01.098Z,7.9
2018-08-06T00:32:01.167Z,8.0
2018-08-06T00:37:01.099Z,7.6
2018-08-06T00:42:01.230Z,8.0
2018-08-06T00:47:01.104Z,7.9
2018-08-06T00:52:01.168Z,8.8
2018-08-06T00:57:01.113Z,9.4
2018-08-06T01:02:01.181Z,9.8
2018-08-06T01:07:01.141Z,9.4
2018-08-06T01:12:01.091Z,9.2
2018-08-06T01:22:01.233Z,8.6
2018-08-06T01:27:01.098Z,8.2
2018-08-06T01:32:01.112Z,8.3
2018-08-06T01:37:01.109Z,8.7
2018-08-06T01:42:01.173Z,8.2
2018-08-06T01:52:01.244Z,8.4
2018-08-06T02:02:01.186Z,8.2
2018-08-06T02:07:01.097Z,8.1
2018-08-06T02:12:01.169Z,8.9
2018-08-06T02:17:01.136Z,8.7
2018-08-06T02:22:01.106Z,8.5
2018-08-06T02:27:01.136Z,8.3
2018-08-06T02:32:01.240Z,8.9
2018-08-06T02:37:01.110Z,8.8
2018-08-06T02:42:01.184Z,9.0
2018-08-06T02:47:01.114Z,9.4
2018-08-06T02:52:01.159Z,10.1
2018-08-06T02:57:01.133Z,10.3
2018-08-06T03:02:01.231Z,10.1
2018-08-06T03:07:01.106Z,10.6
2018-08-06T03:12:01.114Z,11.5
2018-08-06T03:17:01.115Z,11.6
2018-08-06T03:22:01.168Z,11.7
2018-08-06T03:27:01.117Z,12.0
2018-08-06T03:32:01.169Z,11.6
2018-08-06T03:37:01.126Z,10.9
2018-08-06T03:42:01.220Z,10.6
2018-08-06T03:47:01.106Z,10.2
2018-08-06T03:52:01.166Z,9.8
2018-08-06T03:57:01.104Z,9.9
2018-08-06T04:02:06.186Z,10.0
2018-08-06T04:07:06.111Z,11.0
2018-08-06T04:12:06.247Z,11.1
2018-08-06T04:22:06.116Z,10.9
2018-08-06T04:27:06.119Z,11.4
2018-08-06T04:32:01.124Z,10.0
2018-08-06T04:37:06.128Z,10.2
2018-08-06T04:42:01.125Z,10.3
2018-08-06T04:47:06.114Z,10.4
2018-08-06T04:52:01.252Z,10.1
2018-08-06T04:57:06.114Z,10.2
2018-08-06T05:02:06.113Z,10.6
2018-08-06T05:07:06.282Z,10.5
2018-08-06T05:12:06.112Z,10.8
2018-08-06T05:22:01.106Z,11.0
2018-08-06T05:27:01.114Z,10.4
2018-08-06T05:32:01.241Z,10.6
2018-08-06T05:37:01.110Z,10.3
2018-08-06T05:42:01.175Z,10.5
2018-08-06T05:47:01.084Z,10.0
2018-08-06T05:52:01.163Z,9.7
2018-08-06T05:57:01.096Z,9.4
2018-08-06T06:07:01.163Z,8.7
2018-08-06T06:12:01.166Z,8.5
2018-08-06T06:17:01.094Z,8.1
2018-08-06T06:22:01.169Z,7.9
2018-08-06T06:27:01.109Z,7.3
2018-08-06T06:32:01.173Z,7.2
2018-08-06T06:37:01.080Z,6.9
2018-08-06T06:42:01.310Z,7.1
2018-08-06T06:47:01.111Z,6.9
2018-08-06T06:52:01.181Z,7.0
2018-08-06T06:57:01.117Z,6.8
2018-08-06T07:02:01.156Z,6.9
2018-08-06T07:07:06.111Z,7.4
2018-08-06T07:12:06.109Z,7.2
2018-08-06T07:17:01.105Z,6.9
2018-08-06T07:22:01.108Z,7.1
2018-08-06T07:27:01.109Z,8.8
2018-08-06T07:32:01.102Z,8.1
2018-08-06T07:37:01.112Z,8.3
2018-08-06T07:42:01.245Z,8.8
2018-08-06T07:47:01.131Z,8.9
2018-08-06T07:53:06.175Z,7.4
2018-08-06T07:58:01.103Z,7.8
2018-08-06T08:03:01.105Z,8.0
2018-08-06T08:08:01.110Z,8.1
2018-08-06T08:13:01.167Z,8.4
2018-08-06T08:18:01.108Z,8.6
2018-08-06T08:23:01.108Z,8.5
2018-08-06T08:28:01.110Z,8.8
2018-08-06T08:33:01.111Z,8.7
2018-08-06T08:38:01.108Z,8.1
2018-08-06T08:44:01.197Z,8.0
2018-08-06T08:54:01.159Z,8.4
2018-08-06T08:59:01.240Z,8.1
2018-08-06T09:04:01.101Z,8.4
2018-08-06T09:09:01.105Z,8.2
2018-08-06T09:14:01.148Z,8.3
2018-08-06T09:19:01.103Z,7.2
2018-08-06T09:24:06.110Z,7.0
2018-08-06T09:34:01.222Z,7.2
2018-08-06T09:39:01.110Z,6.6
2018-08-06T09:44:01.113Z,6.8
2018-08-06T09:49:01.109Z,7.2
2018-08-06T09:54:01.106Z,6.8
2018-08-06T09:59:01.121Z,6.4
2018-08-06T10:04:01.097Z,6.5
2018-08-06T10:09:01.097Z,7.0
2018-08-06T10:14:01.105Z,6.6
2018-08-06T10:19:01.134Z,6.8
2018-08-06T10:24:01.106Z,6.9
2018-08-06T10:29:01.108Z,7.1
2018-08-06T10:34:01.113Z,6.8
2018-08-06T10:39:01.108Z,7.0
2018-08-06T10:44:01.112Z,6.9
2018-08-06T10:49:01.106Z,6.8
2018-08-06T10:54:01.197Z,6.5
2018-08-06T10:59:06.168Z,6.2
2018-08-06T11:04:06.100Z,6.6
2018-08-06T11:09:01.170Z,6.4
2018-08-06T11:14:01.172Z,6.3
2018-08-06T11:19:01.116Z,6.4
2018-08-06T11:24:01.105Z,6.5
2018-08-06T11:29:01.124Z,6.0
2018-08-06T11:34:06.108Z,6.1
2018-08-06T11:39:06.178Z,6.3
2018-08-06T11:44:01.143Z,7.0
2018-08-06T11:49:01.146Z,7.3
2018-08-06T11:54:01.149Z,7.8
2018-08-06T12:00:01.232Z,7.9
2018-08-06T12:05:01.111Z,8.1
2018-08-06T12:10:01.166Z,7.8
2018-08-06T12:15:01.145Z,7.3
2018-08-06T12:20:01.172Z,7.0
2018-08-06T12:30:01.106Z,6.6
2018-08-06T12:35:01.125Z,6.7
2018-08-06T12:40:01.224Z,6.8
2018-08-06T12:45:01.091Z,6.4
2018-08-06T12:55:01.228Z,6.5
2018-08-06T13:00:01.171Z,6.2
2018-08-06T13:05:06.152Z,6.1
2018-08-06T13:10:06.109Z,6.3
2018-08-06T13:15:06.114Z,6.1
2018-08-06T13:20:01.200Z,6.3
2018-08-06T13:25:01.120Z,6.0
2018-08-06T13:30:01.175Z,5.9
2018-08-06T13:36:01.088Z,6.2
2018-08-06T13:41:01.244Z,6.4
2018-08-06T13:46:01.098Z,6.3
2018-08-06T13:51:01.230Z,6.8
2018-08-06T13:56:01.096Z,7.0
2018-08-06T14:01:01.159Z,6.7
2018-08-06T14:06:01.094Z,6.2
2018-08-06T14:11:01.104Z,6.3
2018-08-06T14:16:01.103Z,6.1
2018-08-06T14:21:01.236Z,5.8
2018-08-06T14:36:01.111Z,5.0
2018-08-06T14:41:01.180Z,4.6
2018-08-06T14:51:01.094Z,4.4
2018-08-06T14:56:01.104Z,4.2
2018-08-06T15:06:01.164Z,4.1
2018-08-06T15:11:01.236Z,3.9
2018-08-06T15:16:01.117Z,3.8
2018-08-06T15:26:01.110Z,3.9
2018-08-06T15:31:01.249Z,4.1
2018-08-06T15:41:01.173Z,3.9
2018-08-06T15:46:01.108Z,3.7
2018-08-06T15:51:01.173Z,3.5
2018-08-06T15:56:01.112Z,3.4
2018-08-06T16:06:01.180Z,3.7
2018-08-06T16:11:01.246Z,3.9
2018-08-06T16:16:01.093Z,4.0
2018-08-06T16:26:01.229Z,3.8
2018-08-06T16:31:01.182Z,3.7
2018-08-06T16:36:01.109Z,3.5
2018-08-06T16:41:01.174Z,3.8
2018-08-06T16:46:01.106Z,4.0
2018-08-06T16:51:01.236Z,4.4
2018-08-06T16:56:01.113Z,4.8
2018-08-06T17:01:01.179Z,5.3
2018-08-06T17:17:01.226Z,5.3
2018-08-06T17:22:01.165Z,4.9
2018-08-06T17:27:01.101Z,4.8
2018-08-06T17:42:01.205Z,4.6
2018-08-06T17:47:01.106Z,4.5
2018-08-06T17:52:01.109Z,4.4
2018-08-06T18:02:01.143Z,4.1
2018-08-06T18:07:01.113Z,4.2
2018-08-06T18:12:01.222Z,5.1
2018-08-06T18:17:01.069Z,5.2
2018-08-06T18:22:01.163Z,5.0
2018-08-06T18:27:01.096Z,4.9
2018-08-06T18:37:01.266Z,4.0
2018-08-06T18:52:01.173Z,4.3
2018-08-06T18:57:01.098Z,4.5
2018-08-06T19:02:01.135Z,4.9
2018-08-06T19:12:01.112Z,5.1
2018-08-06T19:22:01.197Z,5.2
2018-08-06T19:27:01.132Z,4.8
2018-08-06T19:37:06.245Z,4.6
2018-08-06T19:47:01.144Z,4.2
2018-08-06T19:52:01.258Z,4.7
2018-08-06T19:57:06.106Z,5.1
2018-08-06T20:02:06.239Z,5.8
2018-08-06T20:07:06.109Z,6.2
2018-08-06T20:12:06.186Z,6.3
2018-08-06T20:17:06.116Z,6.0
2018-08-06T20:22:06.175Z,6.1
2018-08-06T20:27:06.116Z,5.9
2018-08-06T20:32:01.145Z,5.4
2018-08-06T20:37:06.122Z,6.2
2018-08-06T20:42:06.181Z,6.6
2018-08-06T20:47:01.149Z,6.5
2018-08-06T20:52:01.269Z,5.9
2018-08-06T20:57:06.104Z,6.4
2018-08-06T21:02:06.168Z,6.6
2018-08-06T21:07:06.106Z,7.0
2018-08-06T21:12:01.216Z,6.8
2018-08-06T21:17:01.147Z,7.7
2018-08-06T21:22:06.178Z,7.8
2018-08-06T21:27:01.151Z,7.4
2018-08-06T21:32:01.164Z,7.0
2018-08-06T21:42:01.255Z,6.8
2018-08-06T21:47:01.098Z,6.7
2018-08-06T21:57:01.230Z,6.6
2018-08-06T22:02:01.168Z,7.4
2018-08-06T22:07:01.107Z,7.8
2018-08-06T22:17:01.169Z,8.6
2018-08-06T22:22:01.241Z,8.8
2018-08-06T22:27:01.113Z,8.7
2018-08-06T22:32:01.160Z,8.5
2018-08-06T22:37:01.103Z,8.8
2018-08-06T22:42:01.109Z,8.4
2018-08-06T22:47:01.103Z,8.9
2018-08-06T22:52:01.235Z,9.2
2018-08-06T22:57:01.104Z,9.9
2018-08-06T23:02:01.238Z,9.8
2018-08-06T23:07:01.105Z,10.1
2018-08-06T23:12:01.105Z,9.7
2018-08-06T23:17:01.108Z,9.3
2018-08-06T23:22:01.238Z,9.1
2018-08-06T23:27:01.110Z,9.6
2018-08-06T23:32:01.244Z,8.9
2018-08-06T23:37:01.068Z,9.0
2018-08-06T23:42:01.102Z,9.2
2018-08-06T23:47:01.098Z,9.1
2018-08-06T23:52:01.171Z,9.2
2018-08-06T23:57:01.109Z,9.6
